logo
Search for airport 
image banner adimage banner adimage banner ad
image banner ad

KPBG - Plattsburgh Intl

Located in Plattsburgh, United States

ICAO - PBG, IATA - PBG

Data provided by Airmate  

General information

Coordinates: N44°39'3" W73°28'5"
Elevation is 234 feet MSL.
Magnetic variation is -15° East
View others Airports in New York

Operational data

Special qualification required
Current time UTC:
Current local time:
Weather
METAR: KPBG 171453Z AUTO 10SM BKN065 OVC080 20/14 A3004 RMK AO2 SLP173 T02000144 58014
TAF: KPBG 171120Z 1712/1812 00000KT P6SM SCT120 BKN200 FM171400 15011G23KT P6SM VCSH SCT040 BKN080 BKN210 FM171700 15016G22KT P6SM BKN210 FM172300 16009KT P6SM BKN200
View NOTAMs / SUP AIP / TFR affecting this airport [VIEW]
Communications frequencies: [VIEW]

Runways:

RWY identifierQFULength (ft)Width (ft)SurfaceLDA (ft)
17157°11759200ASPH11759
35337°11759200ASPH11759

Airport contact information

Address: Plattsburgh United States

Satellite view of KPBG